createdAt,value
2019-03-12T00:00:52.090Z,100704.22
2019-03-12T00:03:35.385Z,100704.31
2019-03-12T00:06:01.174Z,100713.50
2019-03-12T00:08:34.497Z,100718.94
2019-03-12T00:11:08.697Z,100721.22
2019-03-12T00:13:45.737Z,100720.08
2019-03-12T00:16:18.177Z,100723.38
2019-03-12T00:18:57.265Z,100732.42
2019-03-12T00:21:46.767Z,100733.38
2019-03-12T00:24:17.674Z,100741.62
2019-03-12T00:26:50.595Z,100745.61
2019-03-12T00:29:23.092Z,100748.94
2019-03-12T00:31:58.167Z,100749.55
2019-03-12T00:34:31.009Z,100756.52
2019-03-12T00:37:01.915Z,100760.34
2019-03-12T00:39:32.807Z,100767.86
2019-03-12T00:42:09.976Z,100778.47
2019-03-12T00:44:41.901Z,100784.06
2019-03-12T00:47:20.684Z,100792.55
2019-03-12T00:49:54.737Z,100800.47
2019-03-12T00:52:36.568Z,100806.57
2019-03-12T00:55:11.133Z,100806.92
2019-03-12T00:57:42.882Z,100803.27
2019-03-12T01:00:20.221Z,100812.73
2019-03-12T01:02:57.340Z,100814.80
2019-03-12T01:05:29.728Z,100817.84
2019-03-12T01:08:01.663Z,100813.77
2019-03-12T01:10:37.480Z,100816.34
2019-03-12T01:13:16.450Z,100816.28
2019-03-12T01:15:50.135Z,100823.20
2019-03-12T01:18:22.219Z,100826.23
2019-03-12T01:20:58.103Z,100821.50
2019-03-12T01:23:30.521Z,100820.41
2019-03-12T01:26:01.469Z,100828.26
2019-03-12T01:28:34.355Z,100827.83
2019-03-12T01:31:05.880Z,100832.27
2019-03-12T01:33:40.052Z,100836.64
2019-03-12T01:36:18.249Z,100845.60
2019-03-12T01:38:51.296Z,100845.47
2019-03-12T01:41:22.554Z,100844.01
2019-03-12T01:43:53.798Z,100848.01
2019-03-12T01:46:25.038Z,100855.73
2019-03-12T01:48:56.401Z,100852.05
2019-03-12T01:51:27.421Z,100853.09
2019-03-12T01:53:58.581Z,100845.17
2019-03-12T01:56:29.386Z,100857.72
2019-03-12T01:59:02.599Z,100857.58
2019-03-12T02:01:34.527Z,100862.21
2019-03-12T02:04:06.697Z,100865.83
2019-03-12T02:06:38.785Z,100866.92
2019-03-12T02:09:11.357Z,100866.00
2019-03-12T02:11:44.804Z,100870.41
2019-03-12T02:14:29.972Z,100874.91
2019-03-12T02:17:00.799Z,100879.05
2019-03-12T02:19:31.697Z,100877.64
2019-03-12T02:22:02.776Z,100874.64
2019-03-12T02:24:35.411Z,100882.60
2019-03-12T02:27:07.619Z,100878.42
2019-03-12T02:29:41.917Z,100881.59
2019-03-12T02:32:12.865Z,100876.57
2019-03-12T02:34:44.068Z,100877.39
2019-03-12T02:37:18.153Z,100883.00
2019-03-12T02:39:53.627Z,100878.41
2019-03-12T02:42:32.915Z,100882.88
2019-03-12T02:45:01.010Z,100882.11
2019-03-12T02:47:31.797Z,100880.13
2019-03-12T02:50:06.295Z,100875.71
2019-03-12T02:52:47.374Z,100866.91
2019-03-12T02:55:22.575Z,100871.03
2019-03-12T02:58:02.226Z,100873.33
2019-03-12T03:00:38.677Z,100881.65
2019-03-12T03:03:11.250Z,100878.48
2019-03-12T03:06:04.603Z,100878.67
2019-03-12T03:08:38.478Z,100884.31
2019-03-12T03:11:11.021Z,100886.01
2019-03-12T03:14:07.756Z,100884.35
2019-03-12T03:16:38.894Z,100882.25
2019-03-12T03:19:15.882Z,100882.38
2019-03-12T03:22:00.594Z,100875.36
2019-03-12T03:24:39.607Z,100880.19
2019-03-12T03:27:12.901Z,100879.54
2019-03-12T03:29:45.115Z,100889.80
2019-03-12T03:32:17.091Z,100887.14
2019-03-12T03:34:55.452Z,100891.91
2019-03-12T03:37:41.198Z,100893.63
2019-03-12T03:40:17.791Z,100885.00
2019-03-12T03:42:55.086Z,100889.73
2019-03-12T03:45:26.680Z,100889.61
2019-03-12T03:48:03.466Z,100894.66
2019-03-12T03:50:39.437Z,100909.70
2019-03-12T03:53:20.854Z,100898.95
2019-03-12T03:55:57.310Z,100900.10
2019-03-12T03:58:44.401Z,100895.92
2019-03-12T04:01:23.843Z,100897.66
2019-03-12T04:04:02.344Z,100896.13
2019-03-12T04:06:38.464Z,100902.89
2019-03-12T04:09:12.855Z,100894.87
2019-03-12T04:11:51.564Z,100893.77
2019-03-12T04:14:25.208Z,100891.15
2019-03-12T04:16:56.133Z,100891.84
2019-03-12T04:19:45.453Z,100885.23
2019-03-12T04:22:43.658Z,100888.52
2019-03-12T04:25:32.962Z,100894.25
2019-03-12T04:28:13.572Z,100896.42
2019-03-12T04:30:51.219Z,100901.75
2019-03-12T04:34:30.865Z,100900.96
2019-03-12T04:37:12.200Z,100907.97
2019-03-12T04:39:55.266Z,100911.55
2019-03-12T04:42:32.509Z,100913.80
2019-03-12T04:45:22.073Z,100922.23
2019-03-12T04:47:59.441Z,100930.12
2019-03-12T04:50:38.918Z,100916.66
2019-03-12T04:53:19.022Z,100921.83
2019-03-12T04:55:51.807Z,100919.31
2019-03-12T04:58:28.021Z,100926.98
2019-03-12T05:01:05.266Z,100923.22
2019-03-12T05:03:46.205Z,100925.22
2019-03-12T05:06:21.571Z,100924.86
2019-03-12T05:09:01.343Z,100922.88
2019-03-12T05:11:35.919Z,100922.20
2019-03-12T05:14:58.140Z,100920.81
2019-03-12T05:17:38.242Z,100924.73
2019-03-12T05:20:24.827Z,100919.56
2019-03-12T05:23:04.811Z,100918.44
2019-03-12T05:25:50.739Z,100924.20
2019-03-12T05:28:37.460Z,100919.13
2019-03-12T05:31:08.043Z,100916.69
2019-03-12T05:33:48.081Z,100926.28
2019-03-12T05:36:27.354Z,100919.98
2019-03-12T05:39:00.734Z,100918.44
2019-03-12T05:41:32.902Z,100921.55
2019-03-12T05:44:05.565Z,100922.58
2019-03-12T05:46:40.395Z,100928.36
2019-03-12T05:49:18.310Z,100921.87
2019-03-12T05:51:50.497Z,100923.67
2019-03-12T05:54:23.885Z,100925.21
2019-03-12T05:56:58.672Z,100918.58
2019-03-12T05:59:32.719Z,100921.91
2019-03-12T06:02:06.333Z,100919.13
2019-03-12T06:04:40.143Z,100923.00
2019-03-12T06:07:18.233Z,100914.63
2019-03-12T06:09:51.875Z,100917.02
2019-03-12T06:12:24.764Z,100923.69
2019-03-12T06:14:59.412Z,100935.59
2019-03-12T06:17:30.483Z,100937.88
2019-03-12T06:20:05.013Z,100926.83
2019-03-12T06:22:38.644Z,100924.03
2019-03-12T06:25:14.960Z,100920.05
2019-03-12T06:27:47.100Z,100911.63
2019-03-12T06:30:20.795Z,100918.13
2019-03-12T06:33:06.164Z,100914.11
2019-03-12T06:35:41.497Z,100918.19
2019-03-12T06:38:20.950Z,100912.70
2019-03-12T06:40:59.713Z,100911.09
2019-03-12T06:43:55.399Z,100919.59
2019-03-12T06:46:39.005Z,100914.71
2019-03-12T06:49:15.066Z,100908.03
2019-03-12T06:52:21.060Z,100905.55
2019-03-12T06:55:15.180Z,100894.02
2019-03-12T06:58:26.424Z,100890.58
2019-03-12T07:01:08.095Z,100889.46
2019-03-12T07:03:58.994Z,100876.25
2019-03-12T07:07:06.843Z,100884.81
2019-03-12T07:10:00.386Z,100886.45
2019-03-12T07:13:03.518Z,100887.81
2019-03-12T07:15:39.640Z,100892.50
2019-03-12T07:18:36.094Z,100889.89
2019-03-12T07:21:34.524Z,100893.56
2019-03-12T07:24:23.225Z,100881.31
2019-03-12T07:27:14.850Z,100890.36
2019-03-12T07:30:13.154Z,100888.67
2019-03-12T07:33:12.700Z,100893.59
2019-03-12T07:36:02.600Z,100881.91
2019-03-12T07:38:59.678Z,100886.97
2019-03-12T07:41:37.991Z,100894.14
2019-03-12T07:44:25.680Z,100886.55
2019-03-12T07:47:14.554Z,100889.13
2019-03-12T07:49:56.697Z,100885.66
2019-03-12T07:52:53.403Z,100890.56
2019-03-12T07:55:49.147Z,100888.58
2019-03-12T07:58:47.916Z,100887.59
2019-03-12T08:01:44.461Z,100884.64
2019-03-12T08:05:09.972Z,100883.70
2019-03-12T08:08:06.842Z,100876.19
2019-03-12T08:10:51.213Z,100873.63
2019-03-12T08:13:40.952Z,100880.30
2019-03-12T08:16:29.691Z,100879.84
2019-03-12T08:19:31.441Z,100871.97
2019-03-12T08:22:33.099Z,100866.78
2019-03-12T08:25:23.840Z,100866.22
2019-03-12T08:28:00.380Z,100861.41
2019-03-12T08:30:58.505Z,100857.34
2019-03-12T08:34:10.025Z,100847.80
2019-03-12T08:37:00.151Z,100853.45
2019-03-12T08:41:38.919Z,100847.25
2019-03-12T08:42:54.007Z,100838.83
2019-03-12T08:45:37.709Z,100843.08
2019-03-12T08:48:24.753Z,100845.59
2019-03-12T08:51:12.771Z,100840.55
2019-03-12T08:53:56.497Z,100835.48
2019-03-12T08:56:54.234Z,100835.02
2019-03-12T08:59:48.079Z,100827.83
2019-03-12T09:02:43.099Z,100828.33
2019-03-12T09:05:26.452Z,100815.80
2019-03-12T09:08:18.590Z,100826.45
2019-03-12T09:11:09.091Z,100809.55
2019-03-12T09:14:07.994Z,100813.70
2019-03-12T09:17:02.092Z,100804.11
2019-03-12T09:19:44.889Z,100788.22
2019-03-12T09:22:26.363Z,100789.49
2019-03-12T09:25:38.144Z,100801.86
2019-03-12T09:28:33.884Z,100789.70
2019-03-12T09:31:15.623Z,100787.38
2019-03-12T09:34:07.102Z,100778.06
2019-03-12T09:37:02.826Z,100775.10
2019-03-12T09:40:02.543Z,100772.84
2019-03-12T09:43:12.271Z,100766.88
2019-03-12T09:45:45.254Z,100761.21
2019-03-12T09:48:33.805Z,100751.36
2019-03-12T09:51:31.157Z,100735.44
2019-03-12T09:54:34.204Z,100730.30
2019-03-12T09:57:53.790Z,100730.33
2019-03-12T10:00:48.744Z,100735.28
2019-03-12T10:03:42.225Z,100724.13
2019-03-12T10:06:32.346Z,100717.67
2019-03-12T10:09:54.786Z,100719.31
2019-03-12T10:12:53.502Z,100715.42
2019-03-12T10:16:19.256Z,100723.73
2019-03-12T10:19:14.119Z,100716.73
2019-03-12T10:22:26.029Z,100713.12
2019-03-12T10:25:29.835Z,100702.52
2019-03-12T10:28:28.737Z,100688.39
2019-03-12T10:31:21.842Z,100683.95
2019-03-12T10:34:30.989Z,100673.12
2019-03-12T10:37:21.179Z,100686.48
2019-03-12T10:40:58.460Z,100684.72
2019-03-12T10:43:55.549Z,100670.17
2019-03-12T10:46:53.914Z,100658.34
2019-03-12T10:49:47.598Z,100651.00
2019-03-12T10:52:22.362Z,100639.20
2019-03-12T10:55:13.425Z,100631.23
2019-03-12T10:58:13.432Z,100644.85
2019-03-12T11:00:52.824Z,100642.91
2019-03-12T11:03:32.688Z,100633.29
2019-03-12T11:06:13.600Z,100624.86
2019-03-12T11:09:08.329Z,100621.82
2019-03-12T11:11:46.720Z,100615.39
2019-03-12T11:14:27.254Z,100609.35
2019-03-12T11:17:02.263Z,100601.33
2019-03-12T11:19:41.997Z,100603.02
2019-03-12T11:22:20.715Z,100593.39
2019-03-12T11:24:54.607Z,100589.61
2019-03-12T11:27:31.879Z,100581.33
2019-03-12T11:30:06.670Z,100578.95
2019-03-12T11:33:00.549Z,100574.15
2019-03-12T11:35:24.571Z,100565.72
2019-03-12T11:38:12.299Z,100560.65
2019-03-12T11:44:43.374Z,100544.39
2019-03-12T11:47:36.424Z,100546.41
2019-03-12T11:50:12.478Z,100542.20
2019-03-12T11:53:00.090Z,100535.45
2019-03-12T11:55:38.826Z,100533.44
2019-03-12T11:58:22.569Z,100528.72
2019-03-12T12:01:06.425Z,100528.43
2019-03-12T12:03:38.717Z,100512.29
2019-03-12T12:06:13.932Z,100513.94
2019-03-12T12:08:49.278Z,100500.98
2019-03-12T12:11:52.714Z,100482.03
2019-03-12T12:14:18.737Z,100471.55
2019-03-12T12:17:25.154Z,100465.96
2019-03-12T12:20:00.391Z,100465.23
2019-03-12T12:22:34.941Z,100454.00
2019-03-12T12:25:37.413Z,100438.70
2019-03-12T12:28:18.911Z,100432.23
2019-03-12T12:30:52.033Z,100427.22
2019-03-12T12:33:26.556Z,100419.58
2019-03-12T12:36:04.124Z,100423.80
2019-03-12T12:38:38.229Z,100405.22
2019-03-12T12:41:16.966Z,100391.67
2019-03-12T12:44:08.733Z,100392.13
2019-03-12T12:46:46.067Z,100381.28
2019-03-12T12:49:28.042Z,100376.91
2019-03-12T12:52:19.529Z,100373.72
2019-03-12T12:55:17.210Z,100362.39
2019-03-12T12:57:50.356Z,100354.16
2019-03-12T13:00:32.109Z,100348.16
2019-03-12T13:03:13.267Z,100343.67
2019-03-12T13:05:55.454Z,100335.59
2019-03-12T13:08:30.760Z,100342.97
2019-03-12T13:11:07.155Z,100341.87
2019-03-12T13:13:42.216Z,100332.55
2019-03-12T13:16:25.561Z,100322.39
2019-03-12T13:18:59.895Z,100322.37
2019-03-12T13:21:44.341Z,100314.45
2019-03-12T13:24:35.538Z,100303.41
2019-03-12T13:27:10.888Z,100292.26
2019-03-12T13:29:59.615Z,100290.91
2019-03-12T13:33:34.435Z,100279.12
2019-03-12T13:39:21.549Z,100267.72
2019-03-12T13:42:15.619Z,100256.30
2019-03-12T13:45:02.225Z,100251.84
2019-03-12T13:47:46.228Z,100244.17
2019-03-12T13:50:18.397Z,100246.03
2019-03-12T13:52:51.640Z,100242.03
2019-03-12T13:55:35.128Z,100238.10
2019-03-12T13:58:20.168Z,100233.40
2019-03-12T14:00:56.317Z,100218.70
2019-03-12T14:03:31.718Z,100213.09
2019-03-12T14:06:02.708Z,100208.11
2019-03-12T14:08:36.022Z,100203.42
2019-03-12T14:11:08.116Z,100205.93
2019-03-12T14:13:47.795Z,100205.64
2019-03-12T14:16:17.296Z,100192.16
2019-03-12T14:18:49.432Z,100188.34
2019-03-12T14:21:29.038Z,100184.48
2019-03-12T14:24:04.128Z,100183.52
2019-03-12T14:26:35.463Z,100173.11
2019-03-12T14:29:16.698Z,100168.06
2019-03-12T14:31:47.801Z,100159.98
2019-03-12T14:34:27.067Z,100159.66
2019-03-12T14:37:05.605Z,100153.95
2019-03-12T14:39:53.464Z,100153.20
2019-03-12T14:42:53.814Z,100138.72
2019-03-12T14:45:40.824Z,100135.64
2019-03-12T14:49:02.181Z,100131.25
2019-03-12T14:52:31.057Z,100126.03
2019-03-12T14:55:36.878Z,100107.43
2019-03-12T14:58:51.145Z,100093.20
2019-03-12T15:02:18.820Z,100089.17
2019-03-12T15:08:19.575Z,100082.66
2019-03-12T15:11:04.901Z,100065.22
2019-03-12T15:13:58.761Z,100063.03
2019-03-12T15:16:57.544Z,100052.77
2019-03-12T15:20:01.938Z,100044.17
2019-03-12T15:22:46.952Z,100045.30
2019-03-12T15:25:30.089Z,100039.33
2019-03-12T15:28:27.011Z,100026.38
2019-03-12T15:31:05.124Z,100041.14
2019-03-12T15:33:45.613Z,100038.44
2019-03-12T15:36:35.281Z,100028.42
2019-03-12T15:39:14.624Z,100008.97
2019-03-12T15:41:49.905Z,99996.91
2019-03-12T15:44:23.629Z,99990.34
2019-03-12T15:47:08.847Z,99986.47
2019-03-12T15:50:04.407Z,99988.56
2019-03-12T15:52:39.921Z,99974.86
2019-03-12T15:55:30.349Z,99970.44
2019-03-12T15:58:33.690Z,99958.59
2019-03-12T16:01:15.526Z,99945.43
2019-03-12T16:04:00.157Z,99931.22
2019-03-12T16:06:38.445Z,99926.77
2019-03-12T16:09:19.994Z,99909.00
2019-03-12T16:12:10.311Z,99905.52
2019-03-12T16:14:40.897Z,99898.44
2019-03-12T16:17:45.423Z,99896.28
2019-03-12T16:20:20.500Z,99895.05
2019-03-12T16:22:59.076Z,99882.13
2019-03-12T16:25:49.650Z,99877.20
2019-03-12T16:28:31.786Z,99850.88
2019-03-12T16:31:26.192Z,99859.94
2019-03-12T16:34:11.722Z,99849.45
2019-03-12T16:36:50.109Z,99844.70
2019-03-12T16:39:29.882Z,99836.66
2019-03-12T16:42:10.324Z,99828.73
2019-03-12T16:45:19.401Z,99828.50
2019-03-12T16:48:34.786Z,99816.14
2019-03-12T16:51:52.684Z,99807.27
2019-03-12T16:55:01.199Z,99801.34
2019-03-12T16:57:51.803Z,99790.38
2019-03-12T17:07:30.351Z,99765.17
2019-03-12T17:10:53.923Z,99764.17
2019-03-12T17:13:06.442Z,99758.82
2019-03-12T17:17:04.127Z,99753.37
2019-03-12T17:19:34.503Z,99745.44
2019-03-12T17:22:47.704Z,99738.70
2019-03-12T17:25:36.678Z,99725.66
2019-03-12T17:31:09.576Z,99712.21
2019-03-12T17:37:20.183Z,99709.17
2019-03-12T17:40:12.834Z,99704.53
2019-03-12T17:43:25.819Z,99696.81
2019-03-12T17:46:13.705Z,99691.30
2019-03-12T17:57:01.279Z,99667.20
2019-03-12T17:58:46.357Z,99648.42
2019-03-12T18:05:11.479Z,99639.27
2019-03-12T18:08:39.261Z,99627.87
2019-03-12T18:18:28.490Z,99605.25
2019-03-12T18:21:26.671Z,99583.48
2019-03-12T18:24:05.644Z,99583.19
2019-03-12T18:26:42.566Z,99577.21
2019-03-12T18:29:40.098Z,99559.27
2019-03-12T18:32:22.601Z,99552.07
2019-03-12T18:35:16.922Z,99541.95
2019-03-12T18:37:43.802Z,99538.81
2019-03-12T18:40:24.083Z,99530.44
2019-03-12T18:43:03.177Z,99521.33
2019-03-12T18:45:43.631Z,99517.23
2019-03-12T18:48:44.520Z,99503.50
2019-03-12T18:51:18.203Z,99495.39
2019-03-12T18:53:52.542Z,99486.41
2019-03-12T18:56:38.153Z,99486.05
2019-03-12T18:59:18.755Z,99471.76
2019-03-12T19:02:08.768Z,99472.40
2019-03-12T19:05:12.044Z,99466.41
2019-03-12T19:07:42.945Z,99452.65
2019-03-12T19:10:26.176Z,99434.36
2019-03-12T19:12:57.214Z,99426.66
2019-03-12T19:15:29.634Z,99421.67
2019-03-12T19:18:07.645Z,99416.00
2019-03-12T19:20:42.753Z,99408.08
2019-03-12T19:23:13.851Z,99390.80
2019-03-12T19:25:44.726Z,99385.64
2019-03-12T19:28:37.940Z,99385.66
2019-03-12T19:31:38.463Z,99376.04
2019-03-12T19:34:22.218Z,99364.29
2019-03-12T19:37:00.495Z,99368.09
2019-03-12T19:39:34.628Z,99353.03
2019-03-12T19:42:07.034Z,99345.31
2019-03-12T19:44:41.254Z,99337.22
2019-03-12T19:57:48.494Z,99310.50
2019-03-12T20:00:44.863Z,99300.61
2019-03-12T20:04:06.125Z,99293.57
2019-03-12T20:07:06.553Z,99295.95
2019-03-12T20:10:57.829Z,99275.84
2019-03-12T20:14:40.041Z,99257.34
2019-03-12T20:18:31.840Z,99249.46
2019-03-12T20:22:35.654Z,99242.49
2019-03-12T20:26:12.857Z,99222.72
2019-03-12T20:29:46.560Z,99214.42
2019-03-12T20:33:24.263Z,99210.16
2019-03-12T20:37:00.546Z,99198.05
2019-03-12T20:40:29.805Z,99172.59
2019-03-12T20:48:21.961Z,99159.22
2019-03-12T20:51:47.024Z,99154.09
2019-03-12T20:55:15.504Z,99150.17
2019-03-12T20:58:53.678Z,99142.88
2019-03-12T21:02:15.759Z,99144.62
2019-03-12T21:05:26.202Z,99141.69
2019-03-12T21:09:25.377Z,99145.10
2019-03-12T21:12:53.682Z,99134.59
2019-03-12T21:16:50.866Z,99123.58
2019-03-12T21:20:18.711Z,99129.90
2019-03-12T21:23:14.843Z,99124.24
2019-03-12T21:26:51.644Z,99111.91
2019-03-12T21:29:45.263Z,99098.97
2019-03-12T21:32:27.646Z,99076.52
2019-03-12T21:35:14.442Z,99072.96
2019-03-12T21:38:26.529Z,99062.50
2019-03-12T21:41:00.191Z,99056.59
2019-03-12T21:43:35.786Z,99044.27
2019-03-12T21:46:36.202Z,99034.70
2019-03-12T21:49:54.965Z,99042.33
2019-03-12T21:52:32.092Z,99024.11
2019-03-12T21:55:17.790Z,99016.05
2019-03-12T22:01:00.825Z,99016.98
2019-03-12T22:04:03.541Z,98997.14
2019-03-12T22:06:42.544Z,98981.12
2019-03-12T22:09:46.969Z,98978.33
2019-03-12T22:12:34.527Z,98958.16
2019-03-12T22:15:34.237Z,98965.94
2019-03-12T22:18:03.717Z,98958.84
2019-03-12T22:20:35.823Z,98946.14
2019-03-12T22:23:15.715Z,98936.37
2019-03-12T22:25:46.811Z,98927.94
2019-03-12T22:28:22.132Z,98929.53
2019-03-12T22:30:54.524Z,98927.81
2019-03-12T22:33:26.291Z,98922.99
2019-03-12T22:36:00.266Z,98929.59
2019-03-12T22:38:33.653Z,98922.89
2019-03-12T22:41:11.468Z,98926.70
2019-03-12T22:44:03.654Z,98915.36
2019-03-12T22:46:35.761Z,98916.48
2019-03-12T22:49:13.800Z,98911.10
2019-03-12T22:51:46.372Z,98907.48
2019-03-12T22:54:17.183Z,98901.73
2019-03-12T22:56:48.337Z,98900.20
2019-03-12T22:59:19.270Z,98892.00
2019-03-12T23:01:50.729Z,98892.05
2019-03-12T23:04:21.609Z,98884.52
2019-03-12T23:06:55.492Z,98874.74
2019-03-12T23:09:33.765Z,98870.30
2019-03-12T23:12:09.644Z,98874.17
2019-03-12T23:14:51.052Z,98872.89
2019-03-12T23:17:21.897Z,98855.43
2019-03-12T23:19:57.654Z,98863.63
2019-03-12T23:22:39.604Z,98854.19
2019-03-12T23:25:10.352Z,98849.23
2019-03-12T23:27:41.203Z,98864.73
2019-03-12T23:30:16.432Z,98872.91
2019-03-12T23:32:47.790Z,98880.37
2019-03-12T23:35:20.368Z,98878.22
2019-03-12T23:37:51.382Z,98876.63
2019-03-12T23:40:26.657Z,98872.35
2019-03-12T23:42:57.651Z,98878.49
2019-03-12T23:45:30.382Z,98876.92
2019-03-12T23:48:07.782Z,98888.55
2019-03-12T23:50:40.612Z,98873.92
2019-03-12T23:53:11.292Z,98864.94
2019-03-12T23:55:46.658Z,98863.16
2019-03-12T23:58:17.440Z,98860.53
